sensor_id;sensor_type;location;lat;lon;timestamp;pressure;altitude;pressure_sealevel;temperature;humidity
9035;BME280;4552;43.422;24.592;2022-12-18T00:01:20;100865.94;;;6.97;100.00
9035;BME280;4552;43.422;24.592;2022-12-18T00:03:48;100839.75;;;6.85;100.00
9035;BME280;4552;43.422;24.592;2022-12-18T00:06:16;100846.78;;;6.92;100.00
9035;BME280;4552;43.422;24.592;2022-12-18T00:08:44;100837.25;;;6.93;100.00
9035;BME280;4552;43.422;24.592;2022-12-18T00:11:15;100852.88;;;6.94;99.41
9035;BME280;4552;43.422;24.592;2022-12-18T00:13:43;100844.13;;;6.89;99.97
9035;BME280;4552;43.422;24.592;2022-12-18T00:16:13;100873.84;;;7.03;100.00
9035;BME280;4552;43.422;24.592;2022-12-18T00:18:41;100865.25;;;7.07;100.00
9035;BME280;4552;43.422;24.592;2022-12-18T00:21:11;100886.22;;;7.17;99.83
9035;BME280;4552;43.422;24.592;2022-12-18T00:23:39;100883.38;;;7.04;100.00
9035;BME280;4552;43.422;24.592;2022-12-18T00:26:10;100901.75;;;7.11;100.00
9035;BME280;4552;43.422;24.592;2022-12-18T00:28:43;100899.09;;;7.09;100.00
9035;BME280;4552;43.422;24.592;2022-12-18T00:31:12;100898.06;;;6.98;100.00
9035;BME280;4552;43.422;24.592;2022-12-18T00:33:39;100895.47;;;6.99;100.00
9035;BME280;4552;43.422;24.592;2022-12-18T00:36:09;100901.53;;;7.00;100.00
9035;BME280;4552;43.422;24.592;2022-12-18T00:38:37;100911.91;;;6.98;100.00
9035;BME280;4552;43.422;24.592;2022-12-18T00:41:05;100918.94;;;7.01;100.00
9035;BME280;4552;43.422;24.592;2022-12-18T00:43:32;100906.44;;;6.82;100.00
9035;BME280;4552;43.422;24.592;2022-12-18T00:46:12;100923.03;;;6.88;100.00
9035;BME280;4552;43.422;24.592;2022-12-18T00:48:39;100884.47;;;6.65;100.00
9035;BME280;4552;43.422;24.592;2022-12-18T00:51:06;100881.63;;;6.51;100.00
9035;BME280;4552;43.422;24.592;2022-12-18T00:53:34;100921.13;;;6.77;100.00
9035;BME280;4552;43.422;24.592;2022-12-18T00:56:03;100895.09;;;6.75;100.00
9035;BME280;4552;43.422;24.592;2022-12-18T00:58:31;100891.59;;;6.75;100.00
9035;BME280;4552;43.422;24.592;2022-12-18T01:01:05;100924.59;;;6.79;100.00
9035;BME280;4552;43.422;24.592;2022-12-18T01:03:32;100913.94;;;6.64;100.00
9035;BME280;4552;43.422;24.592;2022-12-18T01:06:05;100912.50;;;6.81;100.00
9035;BME280;4552;43.422;24.592;2022-12-18T01:08:32;100926.72;;;7.01;99.73
9035;BME280;4552;43.422;24.592;2022-12-18T01:11:00;100933.03;;;7.14;99.23
9035;BME280;4552;43.422;24.592;2022-12-18T01:13:27;100939.66;;;6.95;99.90
9035;BME280;4552;43.422;24.592;2022-12-18T01:15:55;100954.41;;;6.97;100.00
9035;BME280;4552;43.422;24.592;2022-12-18T01:18:24;100954.63;;;7.09;99.54
9035;BME280;4552;43.422;24.592;2022-12-18T01:20:51;100956.13;;;6.97;99.80
9035;BME280;4552;43.422;24.592;2022-12-18T01:23:18;100934.00;;;6.71;100.00
9035;BME280;4552;43.422;24.592;2022-12-18T01:25:45;100942.69;;;6.71;100.00
9035;BME280;4552;43.422;24.592;2022-12-18T01:28:12;100967.34;;;6.91;100.00
9035;BME280;4552;43.422;24.592;2022-12-18T01:30:42;100953.03;;;6.68;100.00
9035;BME280;4552;43.422;24.592;2022-12-18T01:33:09;100948.63;;;6.64;100.00
9035;BME280;4552;43.422;24.592;2022-12-18T01:35:41;100959.94;;;6.68;100.00
9035;BME280;4552;43.422;24.592;2022-12-18T01:38:09;100968.78;;;6.76;100.00
9035;BME280;4552;43.422;24.592;2022-12-18T01:40:37;100959.94;;;6.68;100.00
9035;BME280;4552;43.422;24.592;2022-12-18T01:43:04;100948.28;;;6.45;100.00
9035;BME280;4552;43.422;24.592;2022-12-18T01:45:31;100962.19;;;6.48;100.00
9035;BME280;4552;43.422;24.592;2022-12-18T01:48:00;100964.97;;;6.57;100.00
9035;BME280;4552;43.422;24.592;2022-12-18T01:50:31;100980.13;;;6.79;100.00
9035;BME280;4552;43.422;24.592;2022-12-18T01:53:07;100981.78;;;6.76;98.95
9035;BME280;4552;43.422;24.592;2022-12-18T01:55:38;100986.22;;;6.80;98.87
9035;BME280;4552;43.422;24.592;2022-12-18T01:58:07;100970.78;;;6.90;98.46
9035;BME280;4552;43.422;24.592;2022-12-18T02:00:34;100992.97;;;6.70;99.21
9035;BME280;4552;43.422;24.592;2022-12-18T02:03:01;100975.50;;;6.65;99.77
9035;BME280;4552;43.422;24.592;2022-12-18T02:05:43;100982.31;;;6.57;98.80
9035;BME280;4552;43.422;24.592;2022-12-18T02:08:16;100961.63;;;6.64;98.38
9035;BME280;4552;43.422;24.592;2022-12-18T02:10:55;100995.66;;;6.75;97.75
9035;BME280;4552;43.422;24.592;2022-12-18T02:13:29;101001.06;;;6.87;97.78
9035;BME280;4552;43.422;24.592;2022-12-18T02:16:02;100966.19;;;6.76;97.44
9035;BME280;4552;43.422;24.592;2022-12-18T02:18:36;100997.69;;;6.92;96.21
9035;BME280;4552;43.422;24.592;2022-12-18T02:21:10;100971.22;;;6.67;96.87
9035;BME280;4552;43.422;24.592;2022-12-18T02:23:47;100984.06;;;6.58;97.37
9035;BME280;4552;43.422;24.592;2022-12-18T02:26:26;101008.78;;;6.81;98.36
9035;BME280;4552;43.422;24.592;2022-12-18T02:28:58;101004.38;;;6.77;97.68
9035;BME280;4552;43.422;24.592;2022-12-18T02:31:31;101004.38;;;6.77;97.98
9035;BME280;4552;43.422;24.592;2022-12-18T02:34:02;101010.00;;;6.55;99.52
9035;BME280;4552;43.422;24.592;2022-12-18T02:36:32;101020.72;;;6.71;100.00
9035;BME280;4552;43.422;24.592;2022-12-18T02:39:01;101029.31;;;6.67;100.00
9035;BME280;4552;43.422;24.592;2022-12-18T02:41:32;101028.22;;;6.56;100.00
9035;BME280;4552;43.422;24.592;2022-12-18T02:44:01;101018.91;;;6.66;99.52
9035;BME280;4552;43.422;24.592;2022-12-18T02:46:31;101019.00;;;6.72;98.07
9035;BME280;4552;43.422;24.592;2022-12-18T02:49:08;101022.47;;;6.72;97.41
9035;BME280;4552;43.422;24.592;2022-12-18T02:51:45;101033.41;;;6.55;96.92
9035;BME280;4552;43.422;24.592;2022-12-18T02:54:23;101014.75;;;6.32;96.54
9035;BME280;4552;43.422;24.592;2022-12-18T02:56:58;101026.22;;;6.42;97.17
9035;BME280;4552;43.422;24.592;2022-12-18T02:59:36;101040.06;;;6.42;97.19
9035;BME280;4552;43.422;24.592;2022-12-18T03:02:15;101041.97;;;6.49;96.91
9035;BME280;4552;43.422;24.592;2022-12-18T03:04:48;101005.31;;;6.39;96.99
9035;BME280;4552;43.422;24.592;2022-12-18T03:07:22;101024.59;;;6.48;98.31
9035;BME280;4552;43.422;24.592;2022-12-18T03:09:51;101037.34;;;6.36;98.71
9035;BME280;4552;43.422;24.592;2022-12-18T03:12:26;101045.19;;;6.38;99.09
9035;BME280;4552;43.422;24.592;2022-12-18T03:15:01;101054.25;;;6.16;98.71
9035;BME280;4552;43.422;24.592;2022-12-18T03:17:31;101038.25;;;5.98;99.19
9035;BME280;4552;43.422;24.592;2022-12-18T03:20:03;101058.91;;;5.92;100.00
9035;BME280;4552;43.422;24.592;2022-12-18T03:22:33;101034.13;;;5.71;100.00
9035;BME280;4552;43.422;24.592;2022-12-18T03:25:04;101025.19;;;5.60;99.94
9035;BME280;4552;43.422;24.592;2022-12-18T03:27:36;101055.25;;;5.84;99.70
9035;BME280;4552;43.422;24.592;2022-12-18T03:30:06;101046.56;;;5.82;99.44
9035;BME280;4552;43.422;24.592;2022-12-18T03:32:40;101054.25;;;5.79;98.66
9035;BME280;4552;43.422;24.592;2022-12-18T03:35:11;101062.16;;;5.82;97.82
9035;BME280;4552;43.422;24.592;2022-12-18T03:37:39;101069.88;;;5.81;98.86
9035;BME280;4552;43.422;24.592;2022-12-18T03:40:07;101041.16;;;5.76;98.61
9035;BME280;4552;43.422;24.592;2022-12-18T03:42:43;101079.22;;;5.74;99.14
9035;BME280;4552;43.422;24.592;2022-12-18T03:45:19;101077.22;;;5.64;99.92
9035;BME280;4552;43.422;24.592;2022-12-18T03:47:58;101055.09;;;5.44;100.00
9035;BME280;4552;43.422;24.592;2022-12-18T03:50:33;101077.03;;;5.57;100.00
9035;BME280;4552;43.422;24.592;2022-12-18T03:53:14;101080.72;;;5.65;100.00
9035;BME280;4552;43.422;24.592;2022-12-18T03:55:45;101046.56;;;5.48;100.00
9035;BME280;4552;43.422;24.592;2022-12-18T03:58:18;101087.63;;;5.64;99.80
9035;BME280;4552;43.422;24.592;2022-12-18T04:00:48;101070.06;;;5.54;100.00
9035;BME280;4552;43.422;24.592;2022-12-18T04:03:17;101087.44;;;5.57;100.00
9035;BME280;4552;43.422;24.592;2022-12-18T04:05:46;101091.91;;;5.62;100.00
9035;BME280;4552;43.422;24.592;2022-12-18T04:08:14;101083.91;;;5.53;100.00
9035;BME280;4552;43.422;24.592;2022-12-18T04:10:41;101076.16;;;5.55;100.00
9035;BME280;4552;43.422;24.592;2022-12-18T04:13:09;101113.09;;;5.79;100.00
9035;BME280;4552;43.422;24.592;2022-12-18T04:15:38;101122.53;;;5.75;100.00
9035;BME280;4552;43.422;24.592;2022-12-18T04:18:07;101116.41;;;5.73;99.98
9035;BME280;4552;43.422;24.592;2022-12-18T04:20:34;101117.59;;;5.84;99.49
9035;BME280;4552;43.422;24.592;2022-12-18T04:23:01;101118.06;;;5.70;99.87
9035;BME280;4552;43.422;24.592;2022-12-18T04:25:29;101098.75;;;5.59;99.43
9035;BME280;4552;43.422;24.592;2022-12-18T04:27:55;101123.41;;;5.76;99.51
9035;BME280;4552;43.422;24.592;2022-12-18T04:30:23;101124.41;;;5.81;98.59
9035;BME280;4552;43.422;24.592;2022-12-18T04:32:53;101119.06;;;5.76;98.92
9035;BME280;4552;43.422;24.592;2022-12-18T04:35:20;101108.47;;;5.67;98.49
9035;BME280;4552;43.422;24.592;2022-12-18T04:37:47;101123.22;;;5.68;98.03
9035;BME280;4552;43.422;24.592;2022-12-18T04:40:16;101116.75;;;5.53;98.40
9035;BME280;4552;43.422;24.592;2022-12-18T04:42:42;101136.91;;;5.63;99.12
9035;BME280;4552;43.422;24.592;2022-12-18T04:45:10;101141.41;;;5.35;99.34
9035;BME280;4552;43.422;24.592;2022-12-18T04:47:37;101130.00;;;5.30;99.89
9035;BME280;4552;43.422;24.592;2022-12-18T04:50:07;101147.72;;;5.45;100.00
9035;BME280;4552;43.422;24.592;2022-12-18T04:52:34;101143.22;;;5.39;100.00
9035;BME280;4552;43.422;24.592;2022-12-18T04:55:02;101128.88;;;5.19;100.00
9035;BME280;4552;43.422;24.592;2022-12-18T04:57:29;101110.41;;;5.09;100.00
9035;BME280;4552;43.422;24.592;2022-12-18T04:59:56;101150.81;;;5.32;100.00
9035;BME280;4552;43.422;24.592;2022-12-18T05:02:23;101151.78;;;5.35;100.00
9035;BME280;4552;43.422;24.592;2022-12-18T05:04:51;101141.22;;;5.28;100.00
9035;BME280;4552;43.422;24.592;2022-12-18T05:07:19;101171.81;;;5.41;100.00
9035;BME280;4552;43.422;24.592;2022-12-18T05:09:47;101158.84;;;5.41;99.67
9035;BME280;4552;43.422;24.592;2022-12-18T05:12:14;101155.56;;;5.47;99.58
9035;BME280;4552;43.422;24.592;2022-12-18T05:14:41;101183.97;;;5.75;99.36
9035;BME280;4552;43.422;24.592;2022-12-18T05:17:08;101185.63;;;5.71;99.54
9035;BME280;4552;43.422;24.592;2022-12-18T05:19:35;101196.53;;;5.58;100.00
9035;BME280;4552;43.422;24.592;2022-12-18T05:22:02;101190.34;;;5.53;100.00
9035;BME280;4552;43.422;24.592;2022-12-18T05:24:30;101194.69;;;5.54;100.00
9035;BME280;4552;43.422;24.592;2022-12-18T05:26:57;101178.72;;;5.39;100.00
9035;BME280;4552;43.422;24.592;2022-12-18T05:29:24;101201.56;;;5.52;100.00
9035;BME280;4552;43.422;24.592;2022-12-18T05:31:51;101190.03;;;5.43;100.00
9035;BME280;4552;43.422;24.592;2022-12-18T05:34:20;101194.53;;;5.48;100.00
9035;BME280;4552;43.422;24.592;2022-12-18T05:36:47;101198.63;;;5.40;100.00
9035;BME280;4552;43.422;24.592;2022-12-18T05:39:14;101204.59;;;5.36;100.00
9035;BME280;4552;43.422;24.592;2022-12-18T05:41:44;101222.84;;;5.39;100.00
9035;BME280;4552;43.422;24.592;2022-12-18T05:44:11;101220.38;;;5.44;100.00
9035;BME280;4552;43.422;24.592;2022-12-18T05:46:38;101214.09;;;5.35;100.00
9035;BME280;4552;43.422;24.592;2022-12-18T05:49:05;101214.03;;;5.34;100.00
9035;BME280;4552;43.422;24.592;2022-12-18T05:51:32;101236.38;;;5.59;100.00
9035;BME280;4552;43.422;24.592;2022-12-18T05:53:59;101240.53;;;5.54;100.00
9035;BME280;4552;43.422;24.592;2022-12-18T05:56:26;101237.66;;;5.43;100.00
9035;BME280;4552;43.422;24.592;2022-12-18T05:58:55;101219.16;;;5.31;100.00
9035;BME280;4552;43.422;24.592;2022-12-18T06:01:25;101241.91;;;5.41;100.00
9035;BME280;4552;43.422;24.592;2022-12-18T06:03:53;101232.47;;;5.43;100.00
9035;BME280;4552;43.422;24.592;2022-12-18T06:06:23;101233.41;;;5.45;100.00
9035;BME280;4552;43.422;24.592;2022-12-18T06:08:51;101253.00;;;5.65;100.00
9035;BME280;4552;43.422;24.592;2022-12-18T06:11:20;101256.56;;;5.70;100.00
9035;BME280;4552;43.422;24.592;2022-12-18T06:13:50;101240.94;;;5.69;99.28
9035;BME280;4552;43.422;24.592;2022-12-18T06:16:24;101266.16;;;5.71;98.94
9035;BME280;4552;43.422;24.592;2022-12-18T06:18:52;101262.69;;;5.72;99.45
9035;BME280;4552;43.422;24.592;2022-12-18T06:21:19;101274.06;;;5.76;99.63
9035;BME280;4552;43.422;24.592;2022-12-18T06:23:46;101275.59;;;5.69;99.55
9035;BME280;4552;43.422;24.592;2022-12-18T06:26:15;101281.72;;;5.71;99.86
9035;BME280;4552;43.422;24.592;2022-12-18T06:28:45;101252.53;;;5.49;99.49
9035;BME280;4552;43.422;24.592;2022-12-18T06:31:13;101289.22;;;5.61;99.70
9035;BME280;4552;43.422;24.592;2022-12-18T06:33:41;101269.66;;;5.42;99.65
9035;BME280;4552;43.422;24.592;2022-12-18T06:36:11;101278.53;;;5.50;100.00
9035;BME280;4552;43.422;24.592;2022-12-18T06:38:42;101266.13;;;5.40;100.00
9035;BME280;4552;43.422;24.592;2022-12-18T06:41:11;101306.81;;;5.71;99.89
9035;BME280;4552;43.422;24.592;2022-12-18T06:43:39;101287.56;;;5.64;99.39
9035;BME280;4552;43.422;24.592;2022-12-18T06:46:06;101281.22;;;5.53;99.00
9035;BME280;4552;43.422;24.592;2022-12-18T06:48:33;101288.22;;;5.56;99.22
9035;BME280;4552;43.422;24.592;2022-12-18T06:51:03;101305.09;;;5.71;99.25
9035;BME280;4552;43.422;24.592;2022-12-18T06:53:31;101322.00;;;5.85;98.56
9035;BME280;4552;43.422;24.592;2022-12-18T06:56:03;101278.72;;;5.56;97.63
9035;BME280;4552;43.422;24.592;2022-12-18T06:58:30;101319.19;;;5.79;97.96
9035;BME280;4552;43.422;24.592;2022-12-18T07:01:00;101283.16;;;5.60;97.99
9035;BME280;4552;43.422;24.592;2022-12-18T07:03:27;101331.63;;;5.89;98.40
9035;BME280;4552;43.422;24.592;2022-12-18T07:05:54;101324.66;;;5.88;98.08
9035;BME280;4552;43.422;24.592;2022-12-18T07:08:25;101320.63;;;5.99;97.78
9035;BME280;4552;43.422;24.592;2022-12-18T07:10:52;101333.19;;;6.15;97.81
9035;BME280;4552;43.422;24.592;2022-12-18T07:13:20;101320.13;;;6.12;97.07
9035;BME280;4552;43.422;24.592;2022-12-18T07:15:48;101328.88;;;6.16;96.22
9035;BME280;4552;43.422;24.592;2022-12-18T07:18:16;101338.88;;;6.33;95.67
9035;BME280;4552;43.422;24.592;2022-12-18T07:20:43;101347.75;;;6.41;94.05
9035;BME280;4552;43.422;24.592;2022-12-18T07:23:10;101338.00;;;6.34;93.14
9035;BME280;4552;43.422;24.592;2022-12-18T07:25:42;101308.44;;;6.29;92.44
9035;BME280;4552;43.422;24.592;2022-12-18T07:28:09;101347.03;;;6.82;91.56
9035;BME280;4552;43.422;24.592;2022-12-18T07:30:38;101317.72;;;6.54;90.82
9035;BME280;4552;43.422;24.592;2022-12-18T07:33:05;101355.72;;;6.81;91.41
9035;BME280;4552;43.422;24.592;2022-12-18T07:35:33;101351.91;;;6.69;90.77
9035;BME280;4552;43.422;24.592;2022-12-18T07:38:03;101348.44;;;6.68;90.28
9035;BME280;4552;43.422;24.592;2022-12-18T07:40:32;101339.47;;;6.57;90.96
9035;BME280;4552;43.422;24.592;2022-12-18T07:43:02;101363.03;;;6.63;91.61
9035;BME280;4552;43.422;24.592;2022-12-18T07:45:29;101333.25;;;6.51;90.84
9035;BME280;4552;43.422;24.592;2022-12-18T07:47:56;101327.97;;;6.83;88.21
9035;BME280;4552;43.422;24.592;2022-12-18T07:50:25;101336.69;;;7.21;87.83
9035;BME280;4552;43.422;24.592;2022-12-18T07:52:54;101367.25;;;7.30;86.33
9035;BME280;4552;43.422;24.592;2022-12-18T07:55:21;101367.47;;;7.03;87.09
9035;BME280;4552;43.422;24.592;2022-12-18T07:57:49;101333.66;;;7.04;87.42
9035;BME280;4552;43.422;24.592;2022-12-18T08:00:18;101359.88;;;7.11;86.96
9035;BME280;4552;43.422;24.592;2022-12-18T08:02:45;101372.56;;;6.98;87.80
9035;BME280;4552;43.422;24.592;2022-12-18T08:05:13;101382.97;;;6.98;88.44
9035;BME280;4552;43.422;24.592;2022-12-18T08:07:41;101393.53;;;7.04;88.13
9035;BME280;4552;43.422;24.592;2022-12-18T08:10:08;101380.31;;;6.95;87.21
9035;BME280;4552;43.422;24.592;2022-12-18T08:12:37;101402.44;;;7.14;85.80
9035;BME280;4552;43.422;24.592;2022-12-18T08:15:05;101384.28;;;6.80;84.65
9035;BME280;4552;43.422;24.592;2022-12-18T08:17:40;101397.63;;;6.59;86.29
9035;BME280;4552;43.422;24.592;2022-12-18T08:20:08;101400.38;;;6.65;86.33
9035;BME280;4552;43.422;24.592;2022-12-18T08:22:37;101407.47;;;6.72;86.46
9035;BME280;4552;43.422;24.592;2022-12-18T08:25:09;101411.72;;;6.67;85.33
9035;BME280;4552;43.422;24.592;2022-12-18T08:27:37;101373.50;;;6.32;87.18
9035;BME280;4552;43.422;24.592;2022-12-18T08:30:06;101407.28;;;6.65;86.87
9035;BME280;4552;43.422;24.592;2022-12-18T08:32:33;101378.13;;;6.44;87.14
9035;BME280;4552;43.422;24.592;2022-12-18T08:35:02;101412.69;;;6.72;88.18
9035;BME280;4552;43.422;24.592;2022-12-18T08:37:33;101426.47;;;6.68;88.22
9035;BME280;4552;43.422;24.592;2022-12-18T08:40:00;101404.78;;;6.35;89.25
9035;BME280;4552;43.422;24.592;2022-12-18T08:42:34;101427.91;;;6.57;88.83
9035;BME280;4552;43.422;24.592;2022-12-18T08:45:19;101418.22;;;6.52;88.69
9035;BME280;4552;43.422;24.592;2022-12-18T08:47:46;101400.69;;;6.43;87.45
9035;BME280;4552;43.422;24.592;2022-12-18T08:50:16;101408.03;;;6.28;87.89
9035;BME280;4552;43.422;24.592;2022-12-18T08:52:44;101405.53;;;6.31;87.86
9035;BME280;4552;43.422;24.592;2022-12-18T08:55:11;101414.78;;;6.20;87.93
9035;BME280;4552;43.422;24.592;2022-12-18T08:57:38;101409.69;;;5.94;88.99
9035;BME280;4552;43.422;24.592;2022-12-18T09:00:07;101392.94;;;5.84;89.45
9035;BME280;4552;43.422;24.592;2022-12-18T09:02:34;101406.91;;;5.88;90.08
9035;BME280;4552;43.422;24.592;2022-12-18T09:05:01;101411.22;;;5.87;89.64
9035;BME280;4552;43.422;24.592;2022-12-18T09:07:32;101394.91;;;5.91;88.68
9035;BME280;4552;43.422;24.592;2022-12-18T09:09:59;101422.47;;;6.16;86.54
9035;BME280;4552;43.422;24.592;2022-12-18T09:12:26;101400.59;;;6.09;84.67
9035;BME280;4552;43.422;24.592;2022-12-18T09:14:55;101398.34;;;6.21;83.37
9035;BME280;4552;43.422;24.592;2022-12-18T09:17:24;101417.84;;;6.37;81.26
9035;BME280;4552;43.422;24.592;2022-12-18T09:19:52;101412.63;;;6.37;81.01
9035;BME280;4552;43.422;24.592;2022-12-18T09:22:20;101433.16;;;6.59;80.60
9035;BME280;4552;43.422;24.592;2022-12-18T09:24:50;101410.31;;;6.47;79.96
9035;BME280;4552;43.422;24.592;2022-12-18T09:27:17;101430.66;;;6.63;79.44
9035;BME280;4552;43.422;24.592;2022-12-18T09:29:44;101437.16;;;6.79;79.30
9035;BME280;4552;43.422;24.592;2022-12-18T09:32:11;101404.00;;;6.70;79.66
9035;BME280;4552;43.422;24.592;2022-12-18T09:34:38;101433.91;;;6.87;78.65
9035;BME280;4552;43.422;24.592;2022-12-18T09:37:07;101447.13;;;6.95;78.26
9035;BME280;4552;43.422;24.592;2022-12-18T09:39:35;101445.41;;;6.97;78.55
9035;BME280;4552;43.422;24.592;2022-12-18T09:42:16;101441.13;;;6.99;77.89
9035;BME280;4552;43.422;24.592;2022-12-18T09:44:50;101453.09;;;6.92;78.76
9035;BME280;4552;43.422;24.592;2022-12-18T09:47:23;101460.75;;;7.21;77.53
9035;BME280;4552;43.422;24.592;2022-12-18T09:49:55;101469.44;;;7.20;76.59
9035;BME280;4552;43.422;24.592;2022-12-18T09:52:28;101448.84;;;6.94;76.84
9035;BME280;4552;43.422;24.592;2022-12-18T09:55:00;101451.03;;;6.79;77.06
9035;BME280;4552;43.422;24.592;2022-12-18T09:57:33;101461.53;;;6.82;77.13
9035;BME280;4552;43.422;24.592;2022-12-18T10:00:15;101422.13;;;6.67;77.94
9035;BME280;4552;43.422;24.592;2022-12-18T10:02:43;101444.00;;;6.75;78.69
9035;BME280;4552;43.422;24.592;2022-12-18T10:05:14;101450.06;;;7.08;78.73
9035;BME280;4552;43.422;24.592;2022-12-18T10:07:53;101455.78;;;6.95;78.35
9035;BME280;4552;43.422;24.592;2022-12-18T10:10:35;101456.09;;;6.73;79.37
9035;BME280;4552;43.422;24.592;2022-12-18T10:13:18;101465.69;;;6.76;81.01
9035;BME280;4552;43.422;24.592;2022-12-18T10:15:58;101452.31;;;6.62;80.31
9035;BME280;4552;43.422;24.592;2022-12-18T10:18:44;101462.19;;;6.74;79.04
